createdAt,value
2017-07-30T00:00:26.782Z,87.20
2017-07-30T00:02:57.141Z,87.00
2017-07-30T00:05:27.299Z,87.50
2017-07-30T00:07:57.418Z,87.20
2017-07-30T00:10:28.460Z,86.30
2017-07-30T00:12:58.078Z,86.20
2017-07-30T00:15:29.463Z,85.80
2017-07-30T00:17:59.778Z,85.20
2017-07-30T00:20:29.524Z,86.10
2017-07-30T00:23:00.664Z,85.40
2017-07-30T00:25:31.336Z,85.40
2017-07-30T00:28:02.413Z,86.80
2017-07-30T00:30:32.762Z,86.80
2017-07-30T00:33:04.252Z,87.20
2017-07-30T00:35:34.680Z,86.50
2017-07-30T00:38:04.563Z,86.80
2017-07-30T00:40:34.678Z,86.80
2017-07-30T00:43:09.956Z,87.40
2017-07-30T00:45:40.593Z,85.80
2017-07-30T00:48:10.398Z,85.70
2017-07-30T00:50:41.703Z,86.50
2017-07-30T00:53:16.094Z,85.80
2017-07-30T00:55:45.843Z,85.70
2017-07-30T00:58:16.424Z,86.00
2017-07-30T01:00:46.011Z,86.20
2017-07-30T01:03:16.431Z,86.40
2017-07-30T01:05:50.744Z,86.90
2017-07-30T01:08:32.810Z,86.80
2017-07-30T01:11:05.352Z,87.90
2017-07-30T01:13:35.663Z,87.90
2017-07-30T01:16:05.504Z,88.20
2017-07-30T01:18:35.732Z,88.50
2017-07-30T01:21:05.516Z,87.80
2017-07-30T01:23:36.164Z,86.30
2017-07-30T01:26:06.917Z,86.20
2017-07-30T01:28:36.530Z,85.90
2017-07-30T01:31:06.157Z,85.40
2017-07-30T01:33:35.722Z,85.30
2017-07-30T01:36:05.334Z,85.10
2017-07-30T01:38:35.332Z,85.10
2017-07-30T01:41:04.917Z,85.10
2017-07-30T01:43:34.804Z,85.40
2017-07-30T01:46:05.003Z,87.00
2017-07-30T01:48:34.694Z,86.80
2017-07-30T01:51:04.669Z,86.00
2017-07-30T01:53:34.309Z,85.70
2017-07-30T01:56:04.479Z,85.10
2017-07-30T01:58:34.902Z,84.50
2017-07-30T02:01:04.775Z,83.90
2017-07-30T02:03:34.507Z,83.60
2017-07-30T02:06:04.587Z,83.20
2017-07-30T02:08:35.046Z,83.60
2017-07-30T02:11:05.048Z,84.70
2017-07-30T02:13:35.794Z,84.00
2017-07-30T02:16:08.347Z,83.20
2017-07-30T02:18:42.160Z,84.10
2017-07-30T02:21:12.277Z,84.00
2017-07-30T02:23:48.943Z,84.60
2017-07-30T02:26:19.615Z,83.80
2017-07-30T02:28:49.335Z,84.30
2017-07-30T02:31:19.835Z,85.10
2017-07-30T02:33:49.967Z,85.40
2017-07-30T02:36:19.900Z,84.40
2017-07-30T02:38:50.388Z,84.90
2017-07-30T02:41:20.171Z,84.50
2017-07-30T02:43:50.231Z,85.00
2017-07-30T02:46:19.995Z,84.50
2017-07-30T02:48:50.435Z,84.40
2017-07-30T02:51:20.778Z,84.10
2017-07-30T02:53:51.623Z,85.00
2017-07-30T02:56:21.264Z,84.10
2017-07-30T02:58:51.939Z,83.60
2017-07-30T03:01:21.875Z,83.40
2017-07-30T03:03:52.468Z,83.60
2017-07-30T03:08:35.635Z,83.60
2017-07-30T03:11:05.178Z,83.70
2017-07-30T03:13:34.690Z,84.60
2017-07-30T03:16:04.529Z,84.90
2017-07-30T03:18:34.040Z,84.80
2017-07-30T03:21:03.602Z,84.40
2017-07-30T03:23:33.510Z,84.30
2017-07-30T03:26:03.079Z,85.10
2017-07-30T03:28:33.499Z,85.00
2017-07-30T03:31:03.652Z,85.70
2017-07-30T03:33:33.518Z,85.60
2017-07-30T03:36:03.275Z,85.60
2017-07-30T03:38:33.164Z,85.20
2017-07-30T03:41:04.520Z,84.80
2017-07-30T03:43:35.272Z,84.70
2017-07-30T03:46:05.130Z,84.70
2017-07-30T03:48:35.715Z,84.20
2017-07-30T03:51:05.602Z,83.90
2017-07-30T03:53:35.494Z,83.00
2017-07-30T03:56:05.450Z,83.10
2017-07-30T03:58:36.446Z,83.60
2017-07-30T04:01:06.796Z,83.60
2017-07-30T04:03:36.713Z,83.30
2017-07-30T04:06:06.437Z,82.80
2017-07-30T04:08:36.658Z,82.80
2017-07-30T04:11:06.619Z,82.70
2017-07-30T04:13:36.390Z,83.20
2017-07-30T04:16:06.306Z,82.70
2017-07-30T04:18:35.908Z,82.80
2017-07-30T04:21:05.706Z,83.30
2017-07-30T04:23:35.232Z,83.60
2017-07-30T04:26:04.777Z,82.90
2017-07-30T04:28:34.375Z,81.30
2017-07-30T04:31:04.321Z,81.60
2017-07-30T04:33:34.606Z,81.20
2017-07-30T04:36:04.566Z,81.30
2017-07-30T04:38:34.599Z,81.70
2017-07-30T04:41:04.407Z,81.40
2017-07-30T04:43:34.254Z,81.70
2017-07-30T04:46:03.859Z,80.60
2017-07-30T04:48:33.421Z,80.10
2017-07-30T04:51:03.074Z,81.30
2017-07-30T04:53:32.915Z,80.20
2017-07-30T04:56:02.451Z,79.20
2017-07-30T04:58:31.993Z,80.00
2017-07-30T05:01:01.532Z,79.10
2017-07-30T05:03:31.094Z,79.10
2017-07-30T05:06:00.920Z,80.00
2017-07-30T05:08:30.610Z,79.80
2017-07-30T05:11:00.189Z,79.20
2017-07-30T05:13:30.074Z,77.90
2017-07-30T05:15:59.658Z,76.80
2017-07-30T05:18:29.151Z,76.20
2017-07-30T05:20:58.974Z,75.20
2017-07-30T05:23:28.752Z,76.70
2017-07-30T05:25:58.302Z,76.30
2017-07-30T05:28:27.832Z,77.50
2017-07-30T05:30:57.377Z,78.70
2017-07-30T05:33:27.232Z,76.90
2017-07-30T05:35:57.150Z,75.20
2017-07-30T05:38:26.706Z,75.80
2017-07-30T05:40:56.261Z,75.30
2017-07-30T05:43:25.811Z,77.00
2017-07-30T05:45:55.693Z,75.50
2017-07-30T05:48:25.419Z,75.20
2017-07-30T05:50:55.221Z,74.40
2017-07-30T05:53:24.762Z,75.10
2017-07-30T05:55:54.431Z,75.10
2017-07-30T05:58:24.279Z,73.50
2017-07-30T06:00:53.844Z,73.90
2017-07-30T06:03:23.371Z,74.20
2017-07-30T06:05:53.240Z,72.40
2017-07-30T06:08:23.083Z,71.60
2017-07-30T06:10:53.042Z,72.60
2017-07-30T06:14:51.967Z,71.20
2017-07-30T06:17:21.801Z,72.70
2017-07-30T06:19:51.924Z,72.20
2017-07-30T06:22:21.514Z,72.10
2017-07-30T06:24:51.039Z,71.90
2017-07-30T06:27:20.555Z,72.90
2017-07-30T06:29:50.379Z,73.00
2017-07-30T06:32:19.921Z,72.00
2017-07-30T06:34:49.559Z,71.20
2017-07-30T06:37:19.467Z,71.40
2017-07-30T06:39:49.110Z,70.30
2017-07-30T06:42:19.151Z,71.40
2017-07-30T06:44:48.770Z,68.40
2017-07-30T06:47:18.436Z,62.60
2017-07-30T06:49:47.967Z,56.60
2017-07-30T06:52:17.520Z,51.80
2017-07-30T06:54:47.684Z,49.90
2017-07-30T06:57:17.199Z,55.80
2017-07-30T06:59:46.830Z,56.60
2017-07-30T07:02:16.634Z,57.70
2017-07-30T07:04:46.188Z,60.00
2017-07-30T07:07:15.747Z,65.30
2017-07-30T07:09:45.352Z,64.40
2017-07-30T07:12:15.004Z,66.60
2017-07-30T07:14:44.851Z,66.70
2017-07-30T07:17:15.664Z,67.30
2017-07-30T07:19:45.580Z,68.70
2017-07-30T07:22:15.357Z,69.60
2017-07-30T07:24:46.536Z,70.50
2017-07-30T07:27:17.460Z,71.90
2017-07-30T07:29:48.481Z,71.50
2017-07-30T07:32:18.469Z,72.90
2017-07-30T07:34:48.090Z,76.00
2017-07-30T07:37:18.528Z,76.30
2017-07-30T07:39:49.042Z,76.80
2017-07-30T07:42:18.946Z,77.70
2017-07-30T07:44:49.119Z,78.00
2017-07-30T07:47:21.180Z,78.40
2017-07-30T07:49:51.514Z,80.50
2017-07-30T07:52:21.774Z,79.90
2017-07-30T07:54:51.680Z,83.40
2017-07-30T07:57:21.386Z,82.80
2017-07-30T07:59:51.479Z,82.80
2017-07-30T08:02:22.625Z,84.00
2017-07-30T08:04:53.409Z,87.70
2017-07-30T08:07:26.312Z,87.60
2017-07-30T08:09:56.207Z,88.40
2017-07-30T08:12:36.821Z,84.00
2017-07-30T08:15:07.330Z,84.40
2017-07-30T08:17:36.944Z,88.10
2017-07-30T08:20:06.901Z,89.00
2017-07-30T08:22:36.531Z,90.90
2017-07-30T08:25:06.332Z,90.50
2017-07-30T08:27:36.135Z,90.30
2017-07-30T08:30:05.815Z,90.30
2017-07-30T08:32:41.306Z,90.10
2017-07-30T08:35:17.016Z,90.40
2017-07-30T08:37:52.888Z,90.20
2017-07-30T08:40:26.336Z,90.70
2017-07-30T08:42:56.250Z,91.20
2017-07-30T08:45:26.181Z,91.00
2017-07-30T08:47:57.212Z,91.40
2017-07-30T08:50:27.540Z,91.40
2017-07-30T08:52:57.627Z,91.30
2017-07-30T08:55:27.545Z,90.80
2017-07-30T08:57:57.116Z,90.20
2017-07-30T09:00:26.877Z,90.10
2017-07-30T09:02:56.429Z,90.50
2017-07-30T09:05:27.917Z,90.60
2017-07-30T09:07:57.940Z,90.70
2017-07-30T09:10:28.023Z,90.20
2017-07-30T09:13:12.381Z,90.80
2017-07-30T09:15:42.208Z,90.90
2017-07-30T09:18:12.020Z,90.50
2017-07-30T09:20:42.383Z,90.80
2017-07-30T09:23:12.272Z,90.50
2017-07-30T09:25:42.548Z,90.70
2017-07-30T09:28:12.159Z,90.60
2017-07-30T09:30:41.710Z,90.20
2017-07-30T09:33:11.242Z,90.40
2017-07-30T09:35:41.228Z,88.40
2017-07-30T09:38:11.549Z,88.90
2017-07-30T09:40:41.724Z,88.80
2017-07-30T09:43:11.523Z,85.60
2017-07-30T09:45:41.107Z,87.40
2017-07-30T09:48:11.218Z,87.30
2017-07-30T09:50:40.823Z,87.30
2017-07-30T09:53:10.392Z,85.80
2017-07-30T09:55:40.256Z,86.00
2017-07-30T09:58:10.452Z,86.10
2017-07-30T10:00:40.258Z,84.70
2017-07-30T10:03:09.879Z,86.40
2017-07-30T10:05:39.403Z,85.00
2017-07-30T10:08:10.942Z,84.20
2017-07-30T10:10:40.700Z,81.90
2017-07-30T10:13:13.439Z,81.20
2017-07-30T10:15:43.975Z,83.20
2017-07-30T10:18:13.747Z,83.30
2017-07-30T10:20:43.310Z,83.80
2017-07-30T10:23:13.006Z,83.50
2017-07-30T10:25:44.103Z,79.80
2017-07-30T10:28:14.043Z,82.70
2017-07-30T10:30:43.747Z,82.00
2017-07-30T10:33:14.234Z,80.80
2017-07-30T10:35:44.232Z,79.60
2017-07-30T10:38:14.957Z,79.10
2017-07-30T10:40:44.788Z,73.20
2017-07-30T10:43:14.356Z,74.80
2017-07-30T10:45:45.718Z,71.10
2017-07-30T10:48:17.533Z,67.20
2017-07-30T10:50:47.171Z,64.10
2017-07-30T10:53:16.764Z,60.10
2017-07-30T10:55:46.577Z,58.30
2017-07-30T10:58:22.621Z,49.00
2017-07-30T11:00:54.068Z,48.90
2017-07-30T11:03:23.627Z,45.50
2017-07-30T11:05:56.081Z,45.20
2017-07-30T11:08:26.365Z,47.10
2017-07-30T11:10:55.919Z,49.10
2017-07-30T11:13:25.471Z,47.30
2017-07-30T11:15:55.619Z,45.80
2017-07-30T11:18:25.539Z,50.20
2017-07-30T11:20:56.301Z,49.00
2017-07-30T11:23:27.029Z,49.10
2017-07-30T11:25:57.422Z,49.40
2017-07-30T11:28:28.508Z,50.40
2017-07-30T11:30:59.260Z,54.00
2017-07-30T11:33:29.137Z,52.10
2017-07-30T11:35:59.588Z,56.30
2017-07-30T11:38:29.807Z,60.50
2017-07-30T11:40:59.698Z,56.90
2017-07-30T11:43:29.262Z,57.70
2017-07-30T11:45:59.178Z,58.30
2017-07-30T11:48:28.760Z,58.90
2017-07-30T11:50:58.278Z,56.60
2017-07-30T11:53:28.059Z,56.60
2017-07-30T11:55:57.603Z,61.40
2017-07-30T11:58:27.237Z,58.30
2017-07-30T12:00:57.063Z,59.70
2017-07-30T12:03:27.219Z,58.90
2017-07-30T12:05:58.779Z,59.30
2017-07-30T12:08:28.800Z,59.80
2017-07-30T12:10:58.792Z,58.10
2017-07-30T12:13:28.394Z,59.40
2017-07-30T12:15:57.908Z,58.00
2017-07-30T12:18:27.482Z,56.60
2017-07-30T12:20:57.674Z,55.10
2017-07-30T12:23:27.407Z,56.80
2017-07-30T12:25:56.997Z,58.10
2017-07-30T12:28:26.810Z,52.10
2017-07-30T12:30:56.711Z,54.80
2017-07-30T12:33:26.338Z,55.50
2017-07-30T12:35:55.932Z,54.20
2017-07-30T12:38:25.466Z,54.90
2017-07-30T12:40:55.786Z,52.80
2017-07-30T12:43:25.438Z,54.40
2017-07-30T12:45:55.118Z,52.80
2017-07-30T12:48:25.152Z,53.50
2017-07-30T12:50:54.831Z,53.70
2017-07-30T12:53:24.577Z,53.40
2017-07-30T12:55:54.165Z,52.50
2017-07-30T12:58:24.153Z,52.40
2017-07-30T13:00:54.048Z,52.60
2017-07-30T13:03:23.663Z,57.10
2017-07-30T13:05:53.240Z,53.30
2017-07-30T13:08:24.836Z,55.40
2017-07-30T13:10:54.636Z,54.10
2017-07-30T13:13:24.639Z,54.20
2017-07-30T13:15:54.144Z,53.20
2017-07-30T13:18:24.756Z,53.50
2017-07-30T13:20:54.713Z,53.30
2017-07-30T13:23:24.263Z,59.10
2017-07-30T13:25:53.923Z,55.20
2017-07-30T13:28:23.468Z,56.50
2017-07-30T13:30:53.058Z,57.30
2017-07-30T13:33:23.006Z,54.50
2017-07-30T13:35:52.579Z,50.40
2017-07-30T13:38:22.224Z,52.40
2017-07-30T13:40:51.780Z,54.50
2017-07-30T13:43:21.410Z,54.60
2017-07-30T13:45:51.291Z,54.00
2017-07-30T13:48:20.851Z,53.40
2017-07-30T13:50:50.407Z,52.60
2017-07-30T13:53:20.393Z,54.50
2017-07-30T13:55:49.998Z,52.10
2017-07-30T13:58:19.582Z,55.10
2017-07-30T14:00:49.190Z,53.00
2017-07-30T14:03:18.888Z,52.40
2017-07-30T14:05:48.862Z,51.60
2017-07-30T14:08:18.637Z,51.70
2017-07-30T14:10:48.517Z,50.40
2017-07-30T14:13:18.598Z,52.10
2017-07-30T14:15:48.212Z,52.40
2017-07-30T14:18:17.787Z,50.90
2017-07-30T14:20:47.478Z,52.10
2017-07-30T14:23:17.075Z,50.80
2017-07-30T14:25:47.021Z,52.60
2017-07-30T14:28:16.736Z,54.30
2017-07-30T14:30:46.343Z,49.60
2017-07-30T14:33:16.153Z,50.40
2017-07-30T14:35:45.766Z,49.30
2017-07-30T14:38:15.891Z,50.50
2017-07-30T14:40:45.851Z,49.50
2017-07-30T14:43:15.424Z,50.60
2017-07-30T14:45:45.359Z,49.30
2017-07-30T14:48:15.035Z,48.80
2017-07-30T14:50:44.688Z,48.50
2017-07-30T14:53:14.383Z,48.60
2017-07-30T14:55:44.098Z,49.00
2017-07-30T14:58:14.124Z,48.20
2017-07-30T15:00:43.756Z,47.60
2017-07-30T15:03:13.259Z,48.90
2017-07-30T15:05:43.051Z,47.60
2017-07-30T15:08:12.901Z,49.00
2017-07-30T15:10:42.536Z,49.70
2017-07-30T15:13:12.252Z,51.10
2017-07-30T15:15:41.992Z,51.70
2017-07-30T15:18:12.149Z,50.10
2017-07-30T15:20:41.792Z,52.20
2017-07-30T15:23:11.557Z,52.00
2017-07-30T15:25:42.158Z,52.10
2017-07-30T15:28:11.953Z,51.40
2017-07-30T15:30:41.941Z,52.20
2017-07-30T15:33:11.624Z,51.40
2017-07-30T15:35:41.333Z,52.80
2017-07-30T15:38:11.275Z,53.80
2017-07-30T15:40:42.813Z,53.80
2017-07-30T15:43:12.557Z,53.00
2017-07-30T15:45:44.257Z,53.60
2017-07-30T15:48:14.688Z,53.60
2017-07-30T15:50:50.111Z,53.90
2017-07-30T15:53:19.658Z,52.50
2017-07-30T15:55:49.227Z,53.40
2017-07-30T15:58:19.049Z,51.70
2017-07-30T16:00:48.648Z,51.60
2017-07-30T16:03:18.507Z,51.90
2017-07-30T16:05:51.831Z,51.90
2017-07-30T16:08:21.650Z,52.00
2017-07-30T16:10:51.794Z,51.60
2017-07-30T16:13:21.393Z,52.10
2017-07-30T16:15:51.654Z,52.10
2017-07-30T16:18:22.356Z,52.70
2017-07-30T16:20:51.862Z,51.80
2017-07-30T16:23:21.523Z,52.50
2017-07-30T16:25:51.230Z,52.40
2017-07-30T16:28:28.789Z,53.00
2017-07-30T16:30:58.723Z,51.50
2017-07-30T16:33:29.687Z,52.30
2017-07-30T16:35:59.230Z,52.00
2017-07-30T16:38:29.483Z,51.60
2017-07-30T16:40:59.203Z,50.70
2017-07-30T16:43:29.461Z,50.80
2017-07-30T16:46:00.122Z,51.30
2017-07-30T16:48:30.926Z,51.70
2017-07-30T16:51:01.139Z,53.60
2017-07-30T16:53:30.965Z,58.10
2017-07-30T16:56:00.838Z,59.10
2017-07-30T16:58:30.749Z,59.10
2017-07-30T17:01:01.438Z,59.00
2017-07-30T17:03:31.290Z,59.00
2017-07-30T17:06:01.082Z,59.80
2017-07-30T17:08:31.020Z,59.20
2017-07-30T17:11:00.931Z,58.70
2017-07-30T17:13:31.534Z,58.20
2017-07-30T17:16:01.430Z,59.10
2017-07-30T17:18:31.035Z,58.30
2017-07-30T17:21:00.622Z,58.70
2017-07-30T17:23:30.901Z,59.20
2017-07-30T17:26:00.435Z,61.10
2017-07-30T17:28:31.283Z,62.40
2017-07-30T17:31:00.936Z,63.20
2017-07-30T17:33:30.461Z,63.60
2017-07-30T17:36:00.444Z,64.60
2017-07-30T17:38:30.035Z,63.70
2017-07-30T17:40:59.954Z,64.30
2017-07-30T17:43:30.671Z,66.40
2017-07-30T17:46:00.213Z,67.60
2017-07-30T17:48:30.919Z,64.40
2017-07-30T17:51:00.573Z,65.00
2017-07-30T17:53:30.224Z,65.80
2017-07-30T17:56:01.136Z,66.50
2017-07-30T17:58:31.788Z,67.90
2017-07-30T18:01:01.608Z,69.80
2017-07-30T18:03:31.472Z,69.70
2017-07-30T18:06:01.627Z,69.10
2017-07-30T18:08:31.538Z,70.20
2017-07-30T18:11:01.166Z,70.50
2017-07-30T18:13:30.778Z,71.80
2017-07-30T18:16:00.974Z,71.60
2017-07-30T18:18:31.529Z,72.60
2017-07-30T18:21:01.112Z,71.60
2017-07-30T18:23:30.724Z,72.30
2017-07-30T18:26:00.428Z,73.60
2017-07-30T18:28:31.587Z,72.40
2017-07-30T18:31:02.197Z,72.80
2017-07-30T18:33:31.798Z,73.00
2017-07-30T18:36:01.862Z,73.50
2017-07-30T18:38:32.310Z,73.60
2017-07-30T18:41:01.900Z,73.90
2017-07-30T18:43:31.446Z,74.80
2017-07-30T18:46:03.279Z,75.40
2017-07-30T18:48:33.214Z,75.70
2017-07-30T18:51:03.010Z,76.50
2017-07-30T18:53:33.019Z,76.40
2017-07-30T18:56:02.866Z,77.00
2017-07-30T18:58:32.805Z,77.00
2017-07-30T19:01:02.751Z,77.50
2017-07-30T19:03:32.760Z,78.80
2017-07-30T19:06:02.719Z,79.00
2017-07-30T19:08:32.571Z,80.90
2017-07-30T19:11:02.263Z,79.80
2017-07-30T19:13:32.056Z,79.30
2017-07-30T19:16:01.631Z,78.50
2017-07-30T19:18:31.196Z,79.00
2017-07-30T19:21:01.123Z,78.90
2017-07-30T19:23:30.670Z,79.10
2017-07-30T19:26:00.892Z,79.10
2017-07-30T19:28:30.500Z,79.40
2017-07-30T19:31:00.128Z,81.50
2017-07-30T19:33:30.114Z,81.30
2017-07-30T19:35:59.678Z,81.70
2017-07-30T19:38:29.335Z,80.70
2017-07-30T19:40:59.148Z,79.40
2017-07-30T19:43:28.736Z,78.20
2017-07-30T19:45:59.080Z,78.70
2017-07-30T19:48:28.702Z,79.10
2017-07-30T19:50:58.259Z,79.50
2017-07-30T19:53:28.663Z,77.80
2017-07-30T19:55:58.513Z,79.70
2017-07-30T19:58:28.064Z,74.40
2017-07-30T20:00:58.048Z,72.20
2017-07-30T20:03:27.836Z,71.00
2017-07-30T20:05:57.406Z,70.00
2017-07-30T20:08:27.268Z,67.70
2017-07-30T20:10:56.894Z,65.90
2017-07-30T20:13:26.707Z,65.60
2017-07-30T20:15:56.247Z,63.90
2017-07-30T20:18:29.828Z,62.40
2017-07-30T20:20:59.617Z,62.40
2017-07-30T20:23:29.152Z,62.90
2017-07-30T20:25:59.020Z,63.70
2017-07-30T20:28:28.544Z,63.70
2017-07-30T20:30:58.116Z,64.10
2017-07-30T20:33:27.935Z,64.50
2017-07-30T20:35:57.513Z,66.90
2017-07-30T20:38:27.070Z,67.40
2017-07-30T20:40:56.586Z,68.30
2017-07-30T20:43:26.534Z,69.20
2017-07-30T20:45:56.860Z,71.30
2017-07-30T20:48:26.475Z,73.10
2017-07-30T20:50:56.070Z,72.60
2017-07-30T20:53:25.903Z,73.80
2017-07-30T20:55:55.568Z,74.90
2017-07-30T20:58:25.936Z,76.80
2017-07-30T21:00:55.807Z,78.80
2017-07-30T21:03:25.475Z,81.30
2017-07-30T21:05:55.298Z,80.40
2017-07-30T21:08:25.047Z,82.70
2017-07-30T21:10:54.610Z,84.80
2017-07-30T21:13:24.458Z,85.20
2017-07-30T21:15:54.200Z,85.30
2017-07-30T21:18:23.922Z,83.70
2017-07-30T21:20:54.331Z,84.00
2017-07-30T21:23:23.956Z,84.50
2017-07-30T21:25:54.274Z,85.10
2017-07-30T21:28:23.821Z,83.20
2017-07-30T21:30:54.294Z,83.90
2017-07-30T21:33:24.097Z,82.70
2017-07-30T21:35:54.128Z,84.40
2017-07-30T21:38:23.935Z,85.60
2017-07-30T21:40:53.439Z,86.50
2017-07-30T21:43:23.042Z,86.90
2017-07-30T21:45:52.847Z,84.60
2017-07-30T21:48:22.410Z,85.20
2017-07-30T21:50:52.529Z,85.20
2017-07-30T21:53:22.348Z,83.80
2017-07-30T21:55:52.279Z,82.90
2017-07-30T21:58:22.395Z,81.80
2017-07-30T22:00:52.746Z,82.90
2017-07-30T22:03:23.453Z,82.20
2017-07-30T22:05:53.657Z,82.60
2017-07-30T22:08:23.508Z,83.70
2017-07-30T22:10:53.475Z,83.90
2017-07-30T22:13:22.971Z,82.30
2017-07-30T22:15:52.497Z,84.50
2017-07-30T22:18:22.341Z,83.70
2017-07-30T22:20:51.892Z,84.20
2017-07-30T22:23:21.394Z,85.10
2017-07-30T22:25:51.280Z,82.60
2017-07-30T22:28:21.254Z,81.60
2017-07-30T22:30:51.039Z,81.30
2017-07-30T22:33:20.903Z,82.80
2017-07-30T22:35:51.606Z,82.80
2017-07-30T22:38:21.528Z,82.70
2017-07-30T22:40:51.516Z,83.50
2017-07-30T22:43:21.751Z,83.00
2017-07-30T22:45:51.727Z,80.60
2017-07-30T22:48:21.403Z,82.70
2017-07-30T22:50:56.005Z,81.90
2017-07-30T22:53:25.864Z,82.20
2017-07-30T22:55:55.379Z,81.70
2017-07-30T22:58:25.696Z,81.80
2017-07-30T23:00:55.511Z,82.00
2017-07-30T23:03:25.313Z,81.70
2017-07-30T23:05:55.228Z,81.20
2017-07-30T23:08:25.546Z,80.70
2017-07-30T23:10:55.783Z,80.70
2017-07-30T23:13:26.128Z,81.00
2017-07-30T23:15:55.839Z,81.20
2017-07-30T23:18:26.314Z,81.60
2017-07-30T23:20:56.445Z,81.50
2017-07-30T23:23:26.140Z,80.30
2017-07-30T23:25:55.768Z,80.70
2017-07-30T23:28:26.010Z,79.20
2017-07-30T23:30:56.262Z,78.70
2017-07-30T23:33:26.287Z,78.70
2017-07-30T23:35:56.068Z,79.20
2017-07-30T23:38:25.791Z,79.60
2017-07-30T23:40:55.928Z,79.00
2017-07-30T23:43:26.468Z,78.60
2017-07-30T23:45:56.439Z,80.30
2017-07-30T23:48:26.239Z,78.00
2017-07-30T23:50:56.200Z,78.50
2017-07-30T23:53:25.920Z,78.10
2017-07-30T23:55:55.424Z,77.90
2017-07-30T23:58:24.955Z,77.90
